LYBE Airport Information

Runway Information
Runway 12 Length 11155 ft width 148 ft
Elevation 318 ft Threshold 0 ft Heading 122
Runway 30 Length 11155 ft Width 148 ft
Elevation 335 ft Threshold 1312 ft Heading 302
Airport Frequencies
Type APP Name APP Frequency 119.1 MHZ
Type ATIS Name INFO Frequency 122.925 MHZ
Type TWR Name TWR Frequency 118.1 MHZ
Airport Navaids
Type VOR-DME Name Beograd Frequency 112300 KHZ
Type NDB Name Beograd Frequency 316 KHZ
Type NDB Name Beograd Frequency 380 KHZ
Type NDB Name Beograd Frequency 355 KHZ
Airport Weather Information & NOTAM
ADDS - METARS form results

(0848 UTC 17 November 2018)
Data provider http://aviationweather.gov/metar/data/
 
METAR text: LYBE 170830Z 11013KT CAVOK 05/M02 Q1029 NOSIG
Conditions at: LYBE (BELGRADE/SURCIN , CS) observed 0830 UTC 17 November 2018
Temperature: 5.0°C (41°F)
Dewpoint: -2.0°C (28°F) [RH = 60%]
Pressure (altimeter): 30.38 inches Hg (1029.0 mb)
Winds: from the ESE (110 degrees) at 15 MPH (13 knots; 6.7 m/s)
Visibility: 6 or more miles (10+ km)
Ceiling: ceiling and visibility are OK
Clouds: unknown
Weather: no significant weather observed at this time

METAR text: LYBE 170800Z 11011KT CAVOK 05/M02 Q1029 NOSIG
Conditions at: LYBE (BELGRADE/SURCIN , CS) observed 0800 UTC 17 November 2018
Temperature: 5.0°C (41°F)
Dewpoint: -2.0°C (28°F) [RH = 60%]
Pressure (altimeter): 30.38 inches Hg (1029.0 mb)
Winds: from the ESE (110 degrees) at 13 MPH (11 knots; 5.7 m/s)
Visibility: 6 or more miles (10+ km)
Ceiling: ceiling and visibility are OK
Clouds: unknown
Weather: no significant weather observed at this time

Forecast for: LYBE (BELGRADE/SURCIN , CS)
Text: TAF LYBE 170500Z 1706/1806 09007KT 9999 SCT040 TX07/1712Z TNM00/1804Z
Forecast period: 0600 UTC 17 November 2018 to 0600 UTC 18 November 2018
Forecast type: FROM: standard forecast or significant change
Winds: from the E (90 degrees) at 8 MPH (7 knots; 3.6 m/s)
Visibility: 6 or more miles 10+ km)
Ceiling: at least 12,000 feet AGL
Clouds: scattered clouds at 4000 feet AGL
Weather: no significant weather forecast for this period
Text: TEMPO 1707/1716 12017KT
Forecast period: 0700 to 1600 UTC 17 November 2018
Forecast type: TEMPORARY: The following changes expected for less than half the time period
Winds: from the ESE (120 degrees) at 20 MPH (17 knots; 8.7 m/s)
Visibility: missing
Ceiling: unknown
Clouds: missing
Weather: no significant weather forecast for this period
Text: PROB30
Forecast period: 0400 to 0600 UTC 18 November 2018
Forecast type: TEMPORARY: The following changes expected for less than half the time period
Visibility: 2.49 miles (4.01 km)
Ceiling: 1500 feet AGL
Clouds: broken clouds at 1500 feet AGL
broken clouds at 3000 feet AGL
Weather: -SN -RA  (light snow, light rain)